createdAt,value
2019-01-13T00:01:22.133Z,81.24
2019-01-13T00:04:50.077Z,80.36
2019-01-13T00:08:15.643Z,80.47
2019-01-13T00:11:41.233Z,79.62
2019-01-13T00:15:07.574Z,79.57
2019-01-13T00:18:36.053Z,80.18
2019-01-13T00:22:01.656Z,80.69
2019-01-13T00:25:27.245Z,80.63
2019-01-13T00:28:52.866Z,81.04
2019-01-13T00:32:18.423Z,80.36
2019-01-13T00:35:43.996Z,80.40
2019-01-13T00:39:10.404Z,80.70
2019-01-13T00:42:35.921Z,81.94
2019-01-13T00:46:01.529Z,82.02
2019-01-13T00:49:27.335Z,80.93
2019-01-13T00:52:52.903Z,81.55
2019-01-13T00:56:18.511Z,80.56
2019-01-13T00:59:44.130Z,81.50
2019-01-13T01:03:09.680Z,82.52
2019-01-13T01:06:35.300Z,81.10
2019-01-13T01:10:00.875Z,80.98
2019-01-13T01:13:26.511Z,80.64
2019-01-13T01:16:52.056Z,81.19
2019-01-13T01:20:19.183Z,82.09
2019-01-13T01:23:44.804Z,81.80
2019-01-13T01:27:10.628Z,81.18
2019-01-13T01:30:36.143Z,81.77
2019-01-13T01:34:01.746Z,81.04
2019-01-13T01:37:27.341Z,81.78
2019-01-13T01:40:52.884Z,80.56
2019-01-13T01:44:18.437Z,80.55
2019-01-13T01:47:43.990Z,81.37
2019-01-13T01:51:09.564Z,81.96
2019-01-13T01:54:35.125Z,82.13
2019-01-13T01:58:00.719Z,82.49
2019-01-13T02:01:26.304Z,82.34
2019-01-13T02:04:51.885Z,83.53
2019-01-13T02:08:17.454Z,84.66
2019-01-13T02:11:43.060Z,83.71
2019-01-13T02:15:12.481Z,83.28
2019-01-13T02:18:38.055Z,84.63
2019-01-13T02:22:03.863Z,83.92
2019-01-13T02:25:30.448Z,84.07
2019-01-13T02:28:56.078Z,83.62
2019-01-13T02:32:21.743Z,83.83
2019-01-13T02:35:47.333Z,83.56
2019-01-13T02:39:12.895Z,84.02
2019-01-13T02:42:38.537Z,83.90
2019-01-13T02:46:04.099Z,83.97
2019-01-13T02:49:29.676Z,85.28
2019-01-13T02:52:55.599Z,86.00
2019-01-13T02:56:22.419Z,85.50
2019-01-13T02:59:47.980Z,84.95
2019-01-13T03:03:13.515Z,84.44
2019-01-13T03:06:39.076Z,85.19
2019-01-13T03:10:06.522Z,85.71
2019-01-13T03:13:32.367Z,85.09
2019-01-13T03:16:57.877Z,85.35
2019-01-13T03:20:23.650Z,85.75
2019-01-13T03:23:49.249Z,84.59
2019-01-13T03:27:14.774Z,88.11
2019-01-13T03:30:40.605Z,86.91
2019-01-13T03:34:06.157Z,87.94
2019-01-13T03:37:31.711Z,86.63
2019-01-13T03:40:57.583Z,86.16
2019-01-13T03:44:23.161Z,87.11
2019-01-13T03:47:48.702Z,88.04
2019-01-13T03:51:14.270Z,87.81
2019-01-13T03:54:39.835Z,87.70
2019-01-13T03:58:05.401Z,89.38
2019-01-13T04:01:30.922Z,88.12
2019-01-13T04:04:56.987Z,88.16
2019-01-13T04:08:22.646Z,87.33
2019-01-13T04:11:48.230Z,89.27
2019-01-13T04:15:39.687Z,88.27
2019-01-13T04:19:05.272Z,87.08
2019-01-13T04:22:30.791Z,87.88
2019-01-13T04:25:56.379Z,87.41
2019-01-13T04:29:22.224Z,87.18
2019-01-13T04:32:47.809Z,88.36
2019-01-13T04:36:13.365Z,87.85
2019-01-13T04:39:38.941Z,87.86
2019-01-13T04:43:04.488Z,88.68
2019-01-13T04:46:30.048Z,88.77
2019-01-13T04:49:55.851Z,89.02
2019-01-13T04:53:21.435Z,89.15
2019-01-13T04:56:47.257Z,88.66
2019-01-13T05:00:19.908Z,87.78
2019-01-13T05:03:45.829Z,87.00
2019-01-13T05:07:11.453Z,87.70
2019-01-13T05:10:37.328Z,87.57
2019-01-13T05:14:03.248Z,87.90
2019-01-13T05:17:29.088Z,89.10
2019-01-13T05:20:54.657Z,88.75
2019-01-13T05:24:20.243Z,88.45
2019-01-13T05:27:45.782Z,87.60
2019-01-13T05:31:11.414Z,89.07
2019-01-13T05:34:36.967Z,88.95
2019-01-13T05:38:02.587Z,87.17
2019-01-13T05:41:28.152Z,88.34
2019-01-13T05:44:53.729Z,87.29
2019-01-13T05:48:19.644Z,88.04
2019-01-13T05:51:45.206Z,89.17
2019-01-13T05:55:12.211Z,88.60
2019-01-13T05:58:37.786Z,90.22
2019-01-13T06:02:03.379Z,90.26
2019-01-13T06:05:28.982Z,89.58
2019-01-13T06:08:54.655Z,89.24
2019-01-13T06:12:20.398Z,88.59
2019-01-13T06:15:46.104Z,89.58
2019-01-13T06:19:11.836Z,88.75
2019-01-13T06:22:37.618Z,89.60
2019-01-13T06:26:03.418Z,89.74
2019-01-13T06:29:28.923Z,88.71
2019-01-13T06:32:55.214Z,89.19
2019-01-13T06:36:20.767Z,89.93
2019-01-13T06:39:46.319Z,88.70
2019-01-13T06:43:11.855Z,90.03
2019-01-13T06:46:37.549Z,88.86
2019-01-13T06:50:03.599Z,89.14
2019-01-13T06:53:29.172Z,88.55
2019-01-13T06:56:54.983Z,90.26
2019-01-13T07:00:26.313Z,88.44
2019-01-13T07:03:52.627Z,89.20
2019-01-13T07:07:18.205Z,89.93
2019-01-13T07:10:44.129Z,89.11
2019-01-13T07:14:09.929Z,89.00
2019-01-13T07:17:35.518Z,87.67
2019-01-13T07:21:01.173Z,89.39
2019-01-13T07:24:26.746Z,89.74
2019-01-13T07:27:52.405Z,87.84
2019-01-13T07:31:17.961Z,87.95
2019-01-13T07:34:43.743Z,90.03
2019-01-13T07:38:09.319Z,88.97
2019-01-13T07:41:34.889Z,88.24
2019-01-13T07:45:00.593Z,87.05
2019-01-13T07:48:26.157Z,88.20
2019-01-13T07:51:51.708Z,88.26
2019-01-13T07:55:20.149Z,89.78
2019-01-13T07:58:45.739Z,89.05
2019-01-13T08:02:17.684Z,88.50
2019-01-13T08:05:38.856Z,88.86
2019-01-13T08:09:05.610Z,88.55
2019-01-13T08:12:31.217Z,89.76
2019-01-13T08:15:57.123Z,90.33
2019-01-13T08:19:22.929Z,89.11
2019-01-13T08:22:48.529Z,88.88
2019-01-13T08:26:14.138Z,87.78
2019-01-13T08:29:39.682Z,88.20
2019-01-13T08:33:05.209Z,89.90
2019-01-13T08:36:31.032Z,88.57
2019-01-13T08:39:56.590Z,88.58
2019-01-13T08:43:22.132Z,88.55
2019-01-13T08:46:47.678Z,88.26
2019-01-13T08:50:23.351Z,89.28
2019-01-13T08:53:48.932Z,89.03
2019-01-13T08:57:14.701Z,89.01
2019-01-13T09:00:40.342Z,89.32
2019-01-13T09:04:05.891Z,88.67
2019-01-13T09:07:31.439Z,90.39
2019-01-13T09:11:02.530Z,89.44
2019-01-13T09:14:28.099Z,89.23
2019-01-13T09:17:53.653Z,88.95
2019-01-13T09:21:19.192Z,88.07
2019-01-13T09:24:44.768Z,88.62
2019-01-13T09:28:10.767Z,89.24
2019-01-13T09:31:36.593Z,88.00
2019-01-13T09:35:02.163Z,88.37
2019-01-13T09:38:28.006Z,88.54
2019-01-13T09:41:53.590Z,88.12
2019-01-13T09:45:19.160Z,88.83
2019-01-13T09:48:44.778Z,88.68
2019-01-13T09:52:10.277Z,89.17
2019-01-13T09:55:35.839Z,88.82
2019-01-13T09:59:01.646Z,88.55
2019-01-13T10:02:27.178Z,88.78
2019-01-13T10:05:52.737Z,87.37
2019-01-13T10:09:18.313Z,88.09
2019-01-13T10:12:43.906Z,88.50
2019-01-13T10:16:09.492Z,87.23
2019-01-13T10:19:35.073Z,87.80
2019-01-13T10:23:00.662Z,87.51
2019-01-13T10:26:26.254Z,86.44
2019-01-13T10:29:51.810Z,86.73
2019-01-13T10:33:17.370Z,87.57
2019-01-13T10:36:42.986Z,89.10
2019-01-13T10:40:12.503Z,88.45
2019-01-13T10:43:38.080Z,87.42
2019-01-13T10:47:03.629Z,87.61
2019-01-13T10:50:31.312Z,88.88
2019-01-13T10:53:56.851Z,89.04
2019-01-13T10:57:22.522Z,88.54
2019-01-13T11:00:48.364Z,88.26
2019-01-13T11:04:13.902Z,88.36
2019-01-13T11:07:39.438Z,87.81
2019-01-13T11:11:05.291Z,88.18
2019-01-13T11:14:30.870Z,88.79
2019-01-13T11:17:56.458Z,87.99
2019-01-13T11:21:22.045Z,90.02
2019-01-13T11:24:47.597Z,87.96
2019-01-13T11:28:13.177Z,89.12
2019-01-13T11:31:38.723Z,89.18
2019-01-13T11:35:04.388Z,87.54
2019-01-13T11:38:30.007Z,88.93
2019-01-13T11:41:55.533Z,90.25
2019-01-13T11:45:21.149Z,89.93
2019-01-13T11:48:46.734Z,88.55
2019-01-13T11:52:12.291Z,89.31
2019-01-13T11:55:38.163Z,89.32
2019-01-13T11:59:06.849Z,89.15
2019-01-13T12:02:32.903Z,88.56
2019-01-13T12:05:58.591Z,87.61
2019-01-13T12:09:24.108Z,88.44
2019-01-13T12:12:49.891Z,87.85
2019-01-13T12:16:15.486Z,88.72
2019-01-13T12:19:41.050Z,88.24
2019-01-13T12:23:06.682Z,88.44
2019-01-13T12:26:32.251Z,88.76
2019-01-13T12:29:59.548Z,89.37
2019-01-13T12:33:25.098Z,88.27
2019-01-13T12:36:50.717Z,89.20
2019-01-13T12:40:18.427Z,89.41
2019-01-13T12:43:44.033Z,88.45
2019-01-13T12:47:15.682Z,89.74
2019-01-13T12:50:41.304Z,89.36
2019-01-13T12:54:07.260Z,88.27
2019-01-13T12:57:32.963Z,89.18
2019-01-13T13:00:58.702Z,89.25
2019-01-13T13:04:24.288Z,88.19
2019-01-13T13:07:50.029Z,88.56
2019-01-13T13:11:15.990Z,88.82
2019-01-13T13:14:42.146Z,89.33
2019-01-13T13:18:07.847Z,89.73
2019-01-13T13:21:33.402Z,88.82
2019-01-13T13:24:58.945Z,88.77
2019-01-13T13:28:24.783Z,89.57
2019-01-13T13:31:50.348Z,89.11
2019-01-13T13:35:16.189Z,88.97
2019-01-13T13:38:42.041Z,88.45
2019-01-13T13:42:07.784Z,88.95
2019-01-13T13:45:33.352Z,89.47
2019-01-13T13:48:58.934Z,89.73
2019-01-13T13:52:24.467Z,88.05
2019-01-13T13:55:50.039Z,88.30
2019-01-13T13:59:15.636Z,89.12
2019-01-13T14:02:41.206Z,88.12
2019-01-13T14:06:06.826Z,89.63
2019-01-13T14:09:32.543Z,88.85
2019-01-13T14:12:58.348Z,89.49
2019-01-13T14:16:24.304Z,89.14
2019-01-13T14:19:50.342Z,89.01
2019-01-13T14:23:16.365Z,89.07
2019-01-13T14:26:42.145Z,89.59
2019-01-13T14:30:14.681Z,88.45
2019-01-13T14:33:40.552Z,89.18
2019-01-13T14:37:06.269Z,90.86
2019-01-13T14:40:32.047Z,90.45
2019-01-13T14:43:58.144Z,89.46
2019-01-13T14:47:23.871Z,88.62
2019-01-13T14:50:49.831Z,89.62
2019-01-13T14:54:18.467Z,89.98
2019-01-13T14:57:44.245Z,88.34
2019-01-13T15:01:13.625Z,89.86
2019-01-13T15:04:40.702Z,89.45
2019-01-13T15:08:07.622Z,88.88
2019-01-13T15:11:34.060Z,89.43
2019-01-13T15:15:00.461Z,89.16
2019-01-13T15:18:27.019Z,89.17
2019-01-13T15:21:56.384Z,89.32
2019-01-13T15:25:31.481Z,88.60
2019-01-13T15:28:59.393Z,88.71
2019-01-13T15:32:25.219Z,88.21
2019-01-13T15:35:50.896Z,88.05
2019-01-13T15:39:16.493Z,87.73
2019-01-13T15:42:42.382Z,87.54
2019-01-13T15:46:07.940Z,87.41
2019-01-13T15:49:33.599Z,87.71
2019-01-13T15:52:59.342Z,87.24
2019-01-13T15:56:24.939Z,86.64
2019-01-13T15:59:50.587Z,85.87
2019-01-13T16:03:16.197Z,86.24
2019-01-13T16:06:41.816Z,87.49
2019-01-13T16:10:12.315Z,87.48
2019-01-13T16:13:38.176Z,87.78
2019-01-13T16:17:03.727Z,87.07
2019-01-13T16:20:35.857Z,87.04
2019-01-13T16:24:01.459Z,86.97
2019-01-13T16:27:27.001Z,87.00
2019-01-13T16:30:52.813Z,87.47
2019-01-13T16:34:21.602Z,87.13
2019-01-13T16:37:45.734Z,86.33
2019-01-13T16:41:11.413Z,86.54
2019-01-13T16:44:37.000Z,86.87
2019-01-13T16:48:03.679Z,86.28
2019-01-13T16:51:29.587Z,85.33
2019-01-13T16:54:56.448Z,85.93
2019-01-13T16:58:22.134Z,86.15
2019-01-13T17:01:47.780Z,86.16
2019-01-13T17:05:15.880Z,85.72
2019-01-13T17:08:41.498Z,85.84
2019-01-13T17:12:07.984Z,85.01
2019-01-13T17:15:38.457Z,85.95
2019-01-13T17:19:04.378Z,85.79
2019-01-13T17:22:29.949Z,86.64
2019-01-13T17:25:55.523Z,86.35
2019-01-13T17:29:21.092Z,86.09
2019-01-13T17:32:46.729Z,86.76
2019-01-13T17:36:12.364Z,86.21
2019-01-13T17:39:37.925Z,85.81
2019-01-13T17:43:03.524Z,85.87
2019-01-13T17:46:29.075Z,85.50
2019-01-13T17:49:54.926Z,85.05
2019-01-13T17:53:20.653Z,84.45
2019-01-13T17:56:46.575Z,83.87
2019-01-13T18:00:18.036Z,84.00
2019-01-13T18:03:46.322Z,83.75
2019-01-13T18:07:11.915Z,84.02
2019-01-13T18:10:37.477Z,84.68
2019-01-13T18:14:03.488Z,85.17
2019-01-13T18:17:29.620Z,86.13
2019-01-13T18:20:55.381Z,87.77
2019-01-13T18:24:20.956Z,87.00
2019-01-13T18:31:23.473Z,87.17
2019-01-13T18:35:10.730Z,86.83
2019-01-13T18:39:14.677Z,86.69
2019-01-13T18:42:59.497Z,86.21
2019-01-13T18:46:44.186Z,86.66
2019-01-13T18:50:28.788Z,85.41
2019-01-13T18:54:13.450Z,85.64
2019-01-13T18:57:58.100Z,84.67
2019-01-13T19:05:51.728Z,87.57
2019-01-13T19:14:05.189Z,85.58
2019-01-13T19:25:54.315Z,85.82
2019-01-13T19:33:30.192Z,85.25
2019-01-13T19:41:05.785Z,84.60
2019-01-13T19:45:09.192Z,85.38
2019-01-13T19:48:54.053Z,85.00
2019-01-13T19:52:57.524Z,84.45
2019-01-13T19:56:35.543Z,84.89
2019-01-13T20:01:03.692Z,84.70
2019-01-13T20:04:48.298Z,84.52
2019-01-13T20:12:22.694Z,83.83
2019-01-13T20:16:07.380Z,83.45
2019-01-13T20:19:52.150Z,83.17
2019-01-13T20:23:37.288Z,84.02
2019-01-13T20:27:22.240Z,83.37
2019-01-13T20:39:21.271Z,83.63
2019-01-13T20:43:06.404Z,84.15
2019-01-13T20:46:51.516Z,84.12
2019-01-13T20:50:39.589Z,84.44
2019-01-13T20:54:24.538Z,84.51
2019-01-13T20:58:01.285Z,84.87
2019-01-13T21:01:45.990Z,84.55
2019-01-13T21:05:30.635Z,84.34
2019-01-13T21:09:15.610Z,84.02
2019-01-13T21:13:00.247Z,83.54
2019-01-13T21:17:03.736Z,83.59
2019-01-13T21:20:48.355Z,83.11
2019-01-13T21:24:33.401Z,83.22
2019-01-13T21:32:22.009Z,84.05
2019-01-13T21:36:06.751Z,84.03
2019-01-13T21:39:51.375Z,83.08
2019-01-13T21:47:39.563Z,82.03
2019-01-13T21:51:24.189Z,82.32
2019-01-13T21:55:01.084Z,81.03
2019-01-13T21:58:45.699Z,80.38
2019-01-13T22:02:30.360Z,79.98
2019-01-13T22:06:15.091Z,80.32
2019-01-13T22:09:59.999Z,79.98
2019-01-13T22:13:44.634Z,80.05
2019-01-13T22:17:29.565Z,79.95
2019-01-13T22:21:14.156Z,79.38
2019-01-13T22:24:58.782Z,79.03
2019-01-13T22:28:43.734Z,78.94
2019-01-13T22:32:28.364Z,79.01
2019-01-13T22:36:13.304Z,79.01
2019-01-13T22:39:58.292Z,79.64
2019-01-13T22:43:42.971Z,78.37
2019-01-13T22:47:27.578Z,78.95
2019-01-13T22:51:12.216Z,77.83
2019-01-13T22:54:49.459Z,80.19
2019-01-13T22:58:34.095Z,81.51
2019-01-13T23:02:18.708Z,82.48
2019-01-13T23:06:03.708Z,82.25
2019-01-13T23:09:48.695Z,83.90
2019-01-13T23:13:33.394Z,84.12
2019-01-13T23:17:18.083Z,84.13
2019-01-13T23:21:02.721Z,84.68
2019-01-13T23:24:47.412Z,84.58
2019-01-13T23:28:32.068Z,84.26
2019-01-13T23:32:16.703Z,84.62
2019-01-13T23:36:02.960Z,84.95
2019-01-13T23:39:47.623Z,84.95
2019-01-13T23:43:32.305Z,84.69
2019-01-13T23:47:16.987Z,84.74
2019-01-13T23:51:01.752Z,83.89
2019-01-13T23:54:46.790Z,83.49
2019-01-13T23:58:31.415Z,83.53
